Time;durP1;ratioP1;P1;durP2;ratioP2;P2;SDS_P1;SDS_P2;PMS_P1;PMS_P2;Temp;Humidity;BMP_temperature;BMP_pressure;BME280_temperature;BME280_humidity;BME280_pressure;Samples;Min_cycle;Max_cycle;Signal;HPM_P1;HPM_P2
2021/03/27 00:08:51;;;;;;;51.43;33.40;;;;;;;5.86;60.39;99797.37;471392;1171;114151;-61
2021/03/27 00:19:10;;;;;;;57.25;35.30;;;;;;;6.03;60.34;99784.53;462973;1171;10112973;-65
2021/03/27 00:29:21;;;;;;;68.10;37.20;;;;;;;6.14;60.03;99762.38;471137;1171;114901;-66
2021/03/27 00:39:30;;;;;;;56.35;34.30;;;;;;;6.11;60.17;99750.30;471561;1171;114033;-65
2021/03/27 00:49:39;;;;;;;53.70;36.30;;;;;;;6.00;60.29;99752.49;471166;1170;115311;-64
2021/03/27 00:59:57;;;;;;;56.80;37.85;;;;;;;5.96;60.60;99736.13;470917;1171;114017;-64
2021/03/27 01:10:07;;;;;;;52.13;32.83;;;;;;;5.95;60.46;99731.00;471199;1170;114151;-64
2021/03/27 01:20:16;;;;;;;58.00;36.63;;;;;;;5.82;60.92;99722.84;471149;1171;114248;-64
2021/03/27 01:30:30;;;;;;;58.93;37.17;;;;;;;5.54;60.83;99716.16;471168;1171;116358;-64
2021/03/27 01:40:41;;;;;;;55.27;34.57;;;;;;;5.32;61.50;99711.86;471608;1171;114090;-64
2021/03/27 01:50:50;;;;;;;57.15;36.30;;;;;;;5.32;61.83;99696.23;472053;1171;113941;-64
2021/03/27 02:00:59;;;;;;;58.63;37.43;;;;;;;5.49;61.50;99702.50;471856;1170;114126;-64
2021/03/27 02:11:07;;;;;;;57.30;36.10;;;;;;;5.60;61.43;99703.77;471563;1170;114139;-65
2021/03/27 02:21:44;;;;;;;55.05;34.65;;;;;;;5.67;61.16;99699.14;471319;1171;114087;-67
2021/03/27 02:31:49;;;;;;;59.87;36.50;;;;;;;5.68;61.69;99692.16;471354;1171;114196;-65
2021/03/27 02:42:05;;;;;;;56.03;34.20;;;;;;;5.67;61.47;99688.72;470464;1170;113818;-65
2021/03/27 02:52:29;;;;;;;52.65;35.65;;;;;;;5.56;61.55;99685.72;470780;1171;113951;-64
2021/03/27 03:02:42;;;;;;;57.00;36.85;;;;;;;5.40;62.08;99688.11;471921;1171;113795;-65
2021/03/27 03:13:03;;;;;;;57.90;36.80;;;;;;;5.29;62.18;99672.91;471907;1170;114001;-64
2021/03/27 03:23:12;;;;;;;59.30;36.67;;;;;;;5.32;62.13;99649.37;471408;1171;114050;-65
2021/03/27 03:33:46;;;;;;;50.97;34.00;;;;;;;5.37;62.36;99649.14;471576;1171;113944;-65
2021/03/27 03:43:56;;;;;;;53.17;33.13;;;;;;;5.40;62.38;99646.44;471628;1170;114063;-65
2021/03/27 03:54:23;;;;;;;53.03;33.07;;;;;;;5.38;62.75;99646.49;469874;1171;113903;-64
2021/03/27 04:04:30;;;;;;;49.13;32.13;;;;;;;5.36;62.66;99639.64;470054;1171;114376;-63
2021/03/27 04:14:48;;;;;;;48.95;31.10;;;;;;;5.34;63.13;99631.92;471447;1171;113798;-64
2021/03/27 04:25:02;;;;;;;;;;;;;;;5.28;63.51;99616.53;471651;1171;113910;-63
2021/03/27 04:35:34;;;;;;;52.40;34.30;;;;;;;5.13;63.41;99623.22;471223;1171;99802;-64
2021/03/27 04:45:45;;;;;;;61.70;36.43;;;;;;;5.05;63.93;99620.94;470132;1171;113947;-65
2021/03/27 04:56:04;;;;;;;58.27;38.23;;;;;;;5.22;64.22;99620.23;471781;1170;114008;-64
2021/03/27 05:06:25;;;;;;;56.60;36.33;;;;;;;5.44;64.44;99614.13;471299;1171;113905;-66
2021/03/27 05:16:33;;;;;;;60.85;37.10;;;;;;;5.61;63.70;99613.41;470328;1171;114589;-64
2021/03/27 05:26:48;;;;;;;54.10;35.25;;;;;;;6.28;63.59;99605.28;470443;1171;115080;-64
2021/03/27 05:37:13;;;;;;;63.67;38.93;;;;;;;7.98;61.55;99600.46;471450;1170;113962;-64
2021/03/27 05:48:06;;;;;;;53.90;38.20;;;;;;;9.46;58.43;99603.63;469812;1171;116899;-65
2021/03/27 05:58:28;;;;;;;51.75;37.55;;;;;;;10.38;56.83;99591.05;470089;1171;114001;-64
2021/03/27 06:09:03;;;;;;;50.40;37.55;;;;;;;12.90;53.51;99573.17;471223;1171;114565;-65
2021/03/27 06:19:38;;;;;;;52.13;36.73;;;;;;;12.96;52.94;99580.64;470083;1171;114386;-65
2021/03/27 06:30:11;;;;;;;46.47;35.27;;;;;;;18.32;47.94;99573.45;471098;1170;114920;-64
2021/03/27 06:40:45;;;;;;;45.50;35.50;;;;;;;22.02;42.51;99553.77;471279;1171;114179;-65
2021/03/27 06:51:09;;;;;;;45.73;38.50;;;;;;;24.53;38.63;99551.26;471128;1171;114707;-65
2021/03/27 07:01:50;;;;;;;38.80;34.60;;;;;;;26.61;35.94;99543.63;471263;1171;114542;-66
2021/03/27 07:12:31;;;;;;;40.70;35.10;;;;;;;28.13;33.71;99540.30;471155;1171;115040;-65
2021/03/27 07:23:00;;;;;;;39.80;35.53;;;;;;;29.75;31.29;99539.88;469694;1171;114731;-65
2021/03/27 07:33:33;;;;;;;35.70;32.17;;;;;;;31.52;28.82;99512.61;471081;1170;114596;-64
2021/03/27 07:44:08;;;;;;;29.43;26.70;;;;;;;31.72;26.15;99517.63;470987;1170;114628;-64
2021/03/27 07:54:42;;;;;;;32.58;28.85;;;;;;;32.05;25.74;99515.28;470057;1171;114562;-65
2021/03/27 08:05:20;;;;;;;28.55;25.65;;;;;;;33.75;23.86;99500.77;471176;1170;114170;-64
2021/03/27 08:15:57;;;;;;;30.50;27.45;;;;;;;33.95;23.44;99497.47;471227;1171;114570;-63
2021/03/27 08:26:27;;;;;;;30.93;28.08;;;;;;;33.62;21.89;99493.84;470179;1171;114184;-63
2021/03/27 08:36:48;;;;;;;28.70;26.05;;;;;;;34.03;21.72;99473.59;470877;1171;114581;-64
2021/03/27 08:47:03;;;;;;;27.18;24.33;;;;;;;32.81;21.25;99457.07;470221;1171;115144;-64
2021/03/27 08:57:32;;;;;;;29.53;26.40;;;;;;;27.50;23.23;99445.52;471196;1171;114165;-64
2021/03/27 09:07:56;;;;;;;20.40;17.57;;;;;;;23.99;25.22;99449.57;470880;1171;114719;-66
2021/03/27 09:18:46;;;;;;;25.03;17.87;;;;;;;21.92;26.48;99416.83;471903;1171;114546;-64
2021/03/27 09:29:26;;;;;;;23.70;18.13;;;;;;;20.58;28.06;99410.22;470101;1171;114568;-63
2021/03/27 09:39:38;;;;;;;23.45;17.15;;;;;;;19.41;29.49;99417.19;470871;1171;115802;-64
2021/03/27 09:50:03;;;;;;;23.70;17.03;;;;;;;19.27;30.59;99426.60;470231;1171;114579;-63
2021/03/27 10:00:16;;;;;;;21.70;17.93;;;;;;;18.96;30.78;99421.73;455395;1170;20002010;-62
2021/03/27 10:11:03;;;;;;;30.83;18.37;;;;;;;18.83;31.63;99414.20;470847;1170;114613;-59
2021/03/27 10:21:27;;;;;;;19.48;13.95;;;;;;;18.58;31.93;99408.72;471224;1169;114561;-60
2021/03/27 10:31:41;;;;;;;20.83;13.17;;;;;;;18.23;32.53;99415.71;470384;1171;114214;-60
2021/03/27 10:42:21;;;;;;;135.00;22.20;;;;;;;18.76;32.45;99415.80;472744;1170;115233;-61
2021/03/27 10:52:59;;;;;;;22.13;13.00;;;;;;;18.96;32.55;99407.62;472089;1171;114570;-64
2021/03/27 11:03:39;;;;;;;24.17;14.20;;;;;;;18.96;32.16;99412.94;472035;1170;114605;-63
2021/03/27 11:14:14;;;;;;;20.27;12.77;;;;;;;19.20;32.33;99406.92;471215;1171;114631;-66
2021/03/27 11:24:36;;;;;;;17.65;12.10;;;;;;;19.68;31.80;99409.95;470778;1171;114567;-67
2021/03/27 11:34:45;;;;;;;14.95;11.75;;;;;;;20.16;32.00;99409.39;471407;1170;114813;-67
2021/03/27 11:45:05;;;;;;;15.30;10.90;;;;;;;19.72;31.29;99421.11;471592;1171;114567;-66
2021/03/27 11:55:25;;;;;;;18.33;12.27;;;;;;;19.55;32.04;99429.03;471801;1170;114950;-66
2021/03/27 12:05:36;;;;;;;16.90;10.30;;;;;;;19.42;32.27;99426.84;470954;1171;114731;-66
2021/03/27 12:15:50;;;;;;;18.33;12.57;;;;;;;19.05;32.58;99428.00;470921;1170;114700;-66
2021/03/27 12:26:04;;;;;;;13.05;10.25;;;;;;;18.96;32.50;99432.38;471961;1171;114506;-67
2021/03/27 12:36:13;;;;;;;14.37;9.20;;;;;;;18.78;32.50;99421.80;470855;1171;115062;-66
2021/03/27 12:46:36;;;;;;;10.00;8.00;;;;;;;18.84;32.97;99436.30;471901;1170;113923;-67
2021/03/27 12:57:01;;;;;;;10.60;7.80;;;;;;;18.29;34.25;99476.24;471684;1171;113982;-68
2021/03/27 13:07:16;;;;;;;12.33;8.67;;;;;;;16.88;36.20;99479.75;471937;1170;113978;-60
2021/03/27 13:17:26;;;;;;;16.10;10.45;;;;;;;16.07;37.60;99491.44;471503;1170;114223;-60
2021/03/27 13:27:40;;;;;;;14.97;10.77;;;;;;;15.84;38.32;99494.28;471613;1170;114926;-72
2021/03/27 13:37:51;;;;;;;14.80;9.57;;;;;;;15.48;39.28;99497.37;471801;1170;114213;-61
2021/03/27 13:48:06;;;;;;;18.70;11.93;;;;;;;15.43;40.08;99496.91;470196;1171;114123;-68
2021/03/27 13:58:22;;;;;;;16.10;10.50;;;;;;;15.26;40.50;99541.53;471208;1170;114557;-66
2021/03/27 14:08:40;;;;;;;12.20;9.15;;;;;;;14.01;47.81;99598.22;471315;1170;114175;-66
2021/03/27 14:18:57;;;;;;;;;;;;;;;13.05;52.17;99615.19;471726;1170;114067;-65
2021/03/27 14:29:09;;;;;;;11.33;9.63;;;;;;;12.31;53.07;99665.17;470605;1170;100059;-67
2021/03/27 14:39:34;;;;;;;11.27;8.93;;;;;;;11.42;56.61;99695.69;470242;1170;114151;-67
2021/03/27 14:49:52;;;;;;;13.63;9.73;;;;;;;10.65;59.11;99718.91;471342;1170;114205;-69
2021/03/27 15:00:03;;;;;;;13.30;9.30;;;;;;;10.07;60.77;99731.18;471741;1171;115289;-71
2021/03/27 15:10:43;;;;;;;11.23;9.63;;;;;;;9.94;62.01;99759.91;471951;1171;114420;-71
2021/03/27 15:20:55;;;;;;;7.85;6.60;;;;;;;9.75;62.62;99776.70;472020;1171;113704;-73
2021/03/27 15:31:07;;;;;;;5.10;4.60;;;;;;;9.62;62.44;99788.84;463805;1170;10000892;-72
2021/03/27 15:41:21;;;;;;;5.03;4.30;;;;;;;9.49;62.35;99810.50;471566;1171;113916;-71
2021/03/27 15:51:33;;;;;;;4.10;3.67;;;;;;;9.27;61.99;99815.25;471561;1171;113602;-71
2021/03/27 16:01:41;;;;;;;5.00;3.95;;;;;;;8.97;61.69;99830.78;471420;1171;114718;-73
2021/03/27 16:12:09;;;;;;;3.47;2.87;;;;;;;8.71;61.15;99849.63;472004;1170;114155;-72
2021/03/27 16:22:43;;;;;;;3.47;2.47;;;;;;;8.27;61.62;99867.52;471881;1170;113790;-71
2021/03/27 16:32:59;;;;;;;5.67;4.70;;;;;;;7.88;63.12;99879.00;470674;1171;114242;-72
2021/03/27 16:43:12;;;;;;;11.80;7.77;;;;;;;7.69;64.33;99865.05;471775;1171;113698;-67
2021/03/27 16:53:29;;;;;;;12.03;6.40;;;;;;;7.48;64.98;99889.58;471635;1170;114124;-64
2021/03/27 17:03:41;;;;;;;11.37;7.33;;;;;;;7.29;65.42;99899.11;470374;1171;113989;-62
2021/03/27 17:13:53;;;;;;;47.90;25.40;;;;;;;7.04;65.86;99908.97;470418;1170;114291;-62
2021/03/27 17:24:06;;;;;;;12.87;6.87;;;;;;;6.68;66.60;99924.41;471348;1171;113790;-63
2021/03/27 17:34:25;;;;;;;22.90;11.50;;;;;;;6.33;67.10;99931.08;471911;1170;113939;-65
2021/03/27 17:44:39;;;;;;;10.37;7.07;;;;;;;5.95;67.94;99969.03;471655;1171;114432;-62
2021/03/27 17:54:48;;;;;;;20.65;10.50;;;;;;;5.64;68.59;99966.75;471882;1170;113637;-63
2021/03/27 18:05:00;;;;;;;21.55;12.05;;;;;;;5.49;69.69;99999.42;470780;1171;114640;-62
2021/03/27 18:15:19;;;;;;;27.47;14.43;;;;;;;5.29;69.41;100025.28;472189;1170;114247;-62
2021/03/27 18:25:29;;;;;;;65.73;31.73;;;;;;;4.96;71.27;100006.45;471777;1171;114371;-62
2021/03/27 18:35:37;;;;;;;33.40;18.70;;;;;;;4.67;71.22;100022.14;471617;1171;113993;-62
2021/03/27 18:45:46;;;;;;;23.60;15.70;;;;;;;4.54;71.77;100041.64;471441;1170;114435;-62
2021/03/27 18:56:03;;;;;;;23.63;17.23;;;;;;;4.39;72.29;100038.64;470600;1170;113972;-61
2021/03/27 19:06:15;;;;;;;30.70;19.45;;;;;;;4.49;72.76;100034.85;471859;1171;114748;-63
2021/03/27 19:16:25;;;;;;;39.80;25.30;;;;;;;4.45;72.77;100042.80;470908;1171;114734;-64
2021/03/27 19:26:32;;;;;;;45.35;27.20;;;;;;;4.37;73.19;100061.24;471804;1171;114377;-63
2021/03/27 19:36:37;;;;;;;26.17;18.20;;;;;;;4.41;73.47;100072.41;471094;1171;114799;-63
2021/03/27 19:46:50;;;;;;;32.03;20.63;;;;;;;4.72;73.55;100113.91;462229;1170;10001651;-63
2021/03/27 19:57:02;;;;;;;18.87;13.27;;;;;;;4.97;73.29;100094.07;486482;1171;114804;-62
2021/03/27 20:07:08;;;;;;;17.20;11.23;;;;;;;5.03;72.81;100125.95;486579;1171;113875;-63
2021/03/27 20:17:18;;;;;;;10.17;6.70;;;;;;;5.07;71.91;100118.87;475664;1171;114642;-62
2021/03/27 20:27:25;;;;;;;13.70;8.23;;;;;;;5.13;71.63;100123.88;470812;1170;113964;-62
2021/03/27 20:37:41;;;;;;;9.45;7.00;;;;;;;5.23;71.38;100152.23;470890;1171;113970;-63
2021/03/27 20:48:10;;;;;;;7.90;5.47;;;;;;;5.18;71.27;100148.00;471056;1170;114728;-63
2021/03/27 20:58:52;;;;;;;5.33;3.70;;;;;;;4.99;69.94;100158.16;470789;1172;114950;-66
2021/03/27 21:09:04;;;;;;;3.57;2.60;;;;;;;4.86;70.20;100178.53;455620;1170;20002550;-63
2021/03/27 21:19:43;;;;;;;2.57;1.80;;;;;;;4.64;69.80;100188.73;471812;1170;114848;-64
2021/03/27 21:30:25;;;;;;;2.03;1.63;;;;;;;4.44;68.92;100203.16;471011;1171;114412;-64
2021/03/27 21:40:38;;;;;;;4.67;2.57;;;;;;;4.37;68.18;100229.39;472007;1171;114175;-66
2021/03/27 21:50:54;;;;;;;3.57;2.30;;;;;;;4.13;68.46;100240.44;471855;1170;113800;-65
2021/03/27 22:01:22;;;;;;;3.20;2.00;;;;;;;3.83;68.42;100260.28;471764;1170;114117;-65
2021/03/27 22:11:43;;;;;;;2.50;1.50;;;;;;;3.52;69.12;100266.23;471235;1171;114385;-66
2021/03/27 22:21:53;;;;;;;5.15;2.20;;;;;;;3.13;69.73;100277.49;470656;1171;114311;-67
2021/03/27 22:31:59;;;;;;;4.60;2.80;;;;;;;2.77;69.96;100289.48;470575;1171;113713;-67
2021/03/27 22:42:10;;;;;;;6.27;2.50;;;;;;;2.43;70.75;100297.08;470806;1170;113740;-66
2021/03/27 22:52:28;;;;;;;7.47;3.90;;;;;;;2.14;71.91;100308.83;471627;1170;113784;-68
2021/03/27 23:02:33;;;;;;;4.30;2.97;;;;;;;1.85;71.99;100316.20;471705;1170;114356;-68
2021/03/27 23:12:41;;;;;;;4.60;2.60;;;;;;;1.63;72.44;100319.13;471289;1171;115103;-68
2021/03/27 23:22:59;;;;;;;5.40;2.97;;;;;;;1.41;73.41;100316.02;471668;1170;113603;-68
2021/03/27 23:33:28;;;;;;;6.97;3.20;;;;;;;1.19;73.68;100325.80;471219;1171;113960;-68
2021/03/27 23:43:48;;;;;;;5.40;3.10;;;;;;;0.97;73.91;100329.53;472145;1171;114031;-68
2021/03/27 23:53:56;;;;;;;7.87;4.53;;;;;;;0.72;74.41;100346.22;472034;1170;114334;-69
